sensor_id;sensor_type;location;lat;lon;timestamp;P1;durP1;ratioP1;P2;durP2;ratioP2
1679;SDS011;838;51.794;12.258;2022-08-19T00:00:26;26.30;;;22.67;;
1679;SDS011;838;51.794;12.258;2022-08-19T00:02:52;26.03;;;23.37;;
1679;SDS011;838;51.794;12.258;2022-08-19T00:05:18;24.77;;;22.17;;
1679;SDS011;838;51.794;12.258;2022-08-19T00:07:47;27.90;;;23.70;;
1679;SDS011;838;51.794;12.258;2022-08-19T00:10:15;25.10;;;22.40;;
1679;SDS011;838;51.794;12.258;2022-08-19T00:12:41;26.87;;;22.77;;
1679;SDS011;838;51.794;12.258;2022-08-19T00:15:08;24.83;;;22.30;;
1679;SDS011;838;51.794;12.258;2022-08-19T00:17:39;25.10;;;22.70;;
1679;SDS011;838;51.794;12.258;2022-08-19T00:20:06;26.90;;;24.13;;
1679;SDS011;838;51.794;12.258;2022-08-19T00:22:36;27.13;;;24.30;;
1679;SDS011;838;51.794;12.258;2022-08-19T00:25:02;26.23;;;23.50;;
1679;SDS011;838;51.794;12.258;2022-08-19T00:27:29;27.47;;;24.10;;
1679;SDS011;838;51.794;12.258;2022-08-19T00:29:55;25.07;;;22.37;;
1679;SDS011;838;51.794;12.258;2022-08-19T00:32:21;27.50;;;24.50;;
1679;SDS011;838;51.794;12.258;2022-08-19T00:34:47;27.10;;;23.20;;
1679;SDS011;838;51.794;12.258;2022-08-19T00:37:13;25.80;;;23.23;;
1679;SDS011;838;51.794;12.258;2022-08-19T00:39:39;28.80;;;24.80;;
1679;SDS011;838;51.794;12.258;2022-08-19T00:42:04;26.07;;;23.00;;
1679;SDS011;838;51.794;12.258;2022-08-19T00:44:31;26.83;;;24.03;;
1679;SDS011;838;51.794;12.258;2022-08-19T00:46:57;23.63;;;21.23;;
1679;SDS011;838;51.794;12.258;2022-08-19T00:49:37;24.80;;;22.20;;
1679;SDS011;838;51.794;12.258;2022-08-19T00:52:12;24.43;;;22.07;;
1679;SDS011;838;51.794;12.258;2022-08-19T00:54:41;22.80;;;20.37;;
1679;SDS011;838;51.794;12.258;2022-08-19T00:57:10;21.63;;;19.53;;
1679;SDS011;838;51.794;12.258;2022-08-19T00:59:40;22.63;;;19.33;;
1679;SDS011;838;51.794;12.258;2022-08-19T01:02:10;21.10;;;18.90;;
1679;SDS011;838;51.794;12.258;2022-08-19T01:04:36;20.30;;;18.40;;
1679;SDS011;838;51.794;12.258;2022-08-19T01:07:02;20.27;;;18.37;;
1679;SDS011;838;51.794;12.258;2022-08-19T01:09:28;20.17;;;18.17;;
1679;SDS011;838;51.794;12.258;2022-08-19T01:11:54;19.33;;;17.43;;
1679;SDS011;838;51.794;12.258;2022-08-19T01:14:21;19.90;;;18.00;;
1679;SDS011;838;51.794;12.258;2022-08-19T01:16:47;18.47;;;16.67;;
1679;SDS011;838;51.794;12.258;2022-08-19T01:19:26;18.07;;;16.27;;
1679;SDS011;838;51.794;12.258;2022-08-19T01:21:55;18.23;;;16.57;;
1679;SDS011;838;51.794;12.258;2022-08-19T01:24:27;19.33;;;17.47;;
1679;SDS011;838;51.794;12.258;2022-08-19T01:26:53;17.83;;;16.17;;
1679;SDS011;838;51.794;12.258;2022-08-19T01:29:19;18.50;;;16.80;;
1679;SDS011;838;51.794;12.258;2022-08-19T01:31:45;18.60;;;16.90;;
1679;SDS011;838;51.794;12.258;2022-08-19T01:34:11;16.93;;;15.33;;
1679;SDS011;838;51.794;12.258;2022-08-19T01:36:38;19.17;;;17.27;;
1679;SDS011;838;51.794;12.258;2022-08-19T01:39:13;18.20;;;16.57;;
1679;SDS011;838;51.794;12.258;2022-08-19T01:41:46;18.00;;;16.10;;
1679;SDS011;838;51.794;12.258;2022-08-19T01:44:13;21.70;;;19.60;;
1679;SDS011;838;51.794;12.258;2022-08-19T01:46:40;20.70;;;18.80;;
1679;SDS011;838;51.794;12.258;2022-08-19T01:49:09;21.97;;;18.77;;
1679;SDS011;838;51.794;12.258;2022-08-19T01:51:36;21.43;;;19.37;;
1679;SDS011;838;51.794;12.258;2022-08-19T01:54:02;22.03;;;19.97;;
1679;SDS011;838;51.794;12.258;2022-08-19T01:56:28;23.87;;;21.67;;
1679;SDS011;838;51.794;12.258;2022-08-19T01:58:55;20.97;;;18.97;;
1679;SDS011;838;51.794;12.258;2022-08-19T02:01:24;21.40;;;19.57;;
1679;SDS011;838;51.794;12.258;2022-08-19T02:03:59;23.13;;;21.03;;
1679;SDS011;838;51.794;12.258;2022-08-19T02:06:25;22.70;;;20.50;;
1679;SDS011;838;51.794;12.258;2022-08-19T02:08:52;22.87;;;20.67;;
1679;SDS011;838;51.794;12.258;2022-08-19T02:11:23;24.43;;;22.07;;
1679;SDS011;838;51.794;12.258;2022-08-19T02:13:53;24.03;;;21.70;;
1679;SDS011;838;51.794;12.258;2022-08-19T02:16:19;25.47;;;22.77;;
1679;SDS011;838;51.794;12.258;2022-08-19T02:18:46;24.50;;;22.00;;
1679;SDS011;838;51.794;12.258;2022-08-19T02:21:14;25.43;;;22.70;;
1679;SDS011;838;51.794;12.258;2022-08-19T02:23:41;26.87;;;24.07;;
1679;SDS011;838;51.794;12.258;2022-08-19T02:26:07;25.87;;;23.07;;
1679;SDS011;838;51.794;12.258;2022-08-19T02:28:33;26.80;;;24.00;;
1679;SDS011;838;51.794;12.258;2022-08-19T02:30:59;26.50;;;23.60;;
1679;SDS011;838;51.794;12.258;2022-08-19T02:33:26;26.60;;;23.87;;
1679;SDS011;838;51.794;12.258;2022-08-19T02:35:52;32.50;;;23.77;;
1679;SDS011;838;51.794;12.258;2022-08-19T02:38:17;27.83;;;24.93;;
1679;SDS011;838;51.794;12.258;2022-08-19T02:41:00;28.70;;;25.20;;
1679;SDS011;838;51.794;12.258;2022-08-19T02:43:30;27.90;;;25.00;;
1679;SDS011;838;51.794;12.258;2022-08-19T02:45:57;27.73;;;24.90;;
1679;SDS011;838;51.794;12.258;2022-08-19T02:48:23;27.40;;;24.60;;
1679;SDS011;838;51.794;12.258;2022-08-19T02:50:51;27.60;;;24.80;;
1679;SDS011;838;51.794;12.258;2022-08-19T02:53:20;27.10;;;24.20;;
1679;SDS011;838;51.794;12.258;2022-08-19T02:55:47;28.50;;;25.13;;
1679;SDS011;838;51.794;12.258;2022-08-19T02:58:13;28.93;;;25.00;;
1679;SDS011;838;51.794;12.258;2022-08-19T03:00:47;27.40;;;24.60;;
1679;SDS011;838;51.794;12.258;2022-08-19T03:03:16;26.23;;;23.43;;
1679;SDS011;838;51.794;12.258;2022-08-19T03:05:44;27.83;;;24.80;;
1679;SDS011;838;51.794;12.258;2022-08-19T03:08:10;26.63;;;23.90;;
1679;SDS011;838;51.794;12.258;2022-08-19T03:10:46;30.93;;;27.73;;
1679;SDS011;838;51.794;12.258;2022-08-19T03:13:13;28.23;;;25.23;;
1679;SDS011;838;51.794;12.258;2022-08-19T03:15:44;28.63;;;25.70;;
1679;SDS011;838;51.794;12.258;2022-08-19T03:18:11;29.50;;;25.87;;
1679;SDS011;838;51.794;12.258;2022-08-19T03:20:45;29.97;;;26.83;;
1679;SDS011;838;51.794;12.258;2022-08-19T03:23:16;33.73;;;29.00;;
1679;SDS011;838;51.794;12.258;2022-08-19T03:25:44;31.77;;;28.33;;
1679;SDS011;838;51.794;12.258;2022-08-19T03:28:11;31.20;;;27.47;;
1679;SDS011;838;51.794;12.258;2022-08-19T03:30:39;32.67;;;27.70;;
1679;SDS011;838;51.794;12.258;2022-08-19T03:33:06;34.90;;;30.50;;
1679;SDS011;838;51.794;12.258;2022-08-19T03:35:32;38.33;;;30.27;;
1679;SDS011;838;51.794;12.258;2022-08-19T03:38:01;33.20;;;28.33;;
1679;SDS011;838;51.794;12.258;2022-08-19T03:40:28;37.53;;;30.90;;
1679;SDS011;838;51.794;12.258;2022-08-19T03:42:56;33.60;;;29.50;;
1679;SDS011;838;51.794;12.258;2022-08-19T03:45:22;37.43;;;32.33;;
1679;SDS011;838;51.794;12.258;2022-08-19T03:47:48;32.90;;;29.33;;
1679;SDS011;838;51.794;12.258;2022-08-19T03:50:14;34.83;;;28.30;;
1679;SDS011;838;51.794;12.258;2022-08-19T03:52:43;35.63;;;29.13;;
1679;SDS011;838;51.794;12.258;2022-08-19T03:55:25;36.17;;;30.67;;
1679;SDS011;838;51.794;12.258;2022-08-19T03:57:51;38.53;;;30.70;;
1679;SDS011;838;51.794;12.258;2022-08-19T04:00:16;37.73;;;30.17;;
1679;SDS011;838;51.794;12.258;2022-08-19T04:02:45;33.17;;;29.57;;
1679;SDS011;838;51.794;12.258;2022-08-19T04:05:11;38.63;;;31.70;;
1679;SDS011;838;51.794;12.258;2022-08-19T04:07:38;35.87;;;30.20;;
1679;SDS011;838;51.794;12.258;2022-08-19T04:10:04;35.37;;;29.23;;
1679;SDS011;838;51.794;12.258;2022-08-19T04:12:31;34.40;;;30.00;;
1679;SDS011;838;51.794;12.258;2022-08-19T04:14:57;37.53;;;28.97;;
1679;SDS011;838;51.794;12.258;2022-08-19T04:17:23;38.37;;;30.30;;
1679;SDS011;838;51.794;12.258;2022-08-19T04:19:51;38.30;;;32.60;;
1679;SDS011;838;51.794;12.258;2022-08-19T04:22:23;41.17;;;31.47;;
1679;SDS011;838;51.794;12.258;2022-08-19T04:24:49;35.87;;;31.57;;
1679;SDS011;838;51.794;12.258;2022-08-19T04:27:15;36.13;;;32.30;;
1679;SDS011;838;51.794;12.258;2022-08-19T04:29:41;37.47;;;31.97;;
1679;SDS011;838;51.794;12.258;2022-08-19T04:32:08;40.17;;;32.80;;
1679;SDS011;838;51.794;12.258;2022-08-19T04:34:37;42.40;;;32.90;;
1679;SDS011;838;51.794;12.258;2022-08-19T04:37:04;41.70;;;32.73;;
1679;SDS011;838;51.794;12.258;2022-08-19T04:39:40;43.23;;;34.17;;
1679;SDS011;838;51.794;12.258;2022-08-19T04:42:24;41.43;;;34.40;;
1679;SDS011;838;51.794;12.258;2022-08-19T04:45:06;42.20;;;34.47;;
1679;SDS011;838;51.794;12.258;2022-08-19T04:47:35;49.07;;;34.77;;
1679;SDS011;838;51.794;12.258;2022-08-19T04:50:02;42.73;;;33.87;;
1679;SDS011;838;51.794;12.258;2022-08-19T04:52:31;48.07;;;37.73;;
1679;SDS011;838;51.794;12.258;2022-08-19T04:54:58;49.13;;;37.87;;
1679;SDS011;838;51.794;12.258;2022-08-19T04:57:23;43.80;;;35.90;;
1679;SDS011;838;51.794;12.258;2022-08-19T04:59:54;51.37;;;38.33;;
1679;SDS011;838;51.794;12.258;2022-08-19T05:02:20;53.57;;;37.07;;
1679;SDS011;838;51.794;12.258;2022-08-19T05:04:50;50.30;;;37.77;;
1679;SDS011;838;51.794;12.258;2022-08-19T05:07:24;49.30;;;38.07;;
1679;SDS011;838;51.794;12.258;2022-08-19T05:09:50;49.97;;;36.33;;
1679;SDS011;838;51.794;12.258;2022-08-19T05:12:16;56.60;;;39.57;;
1679;SDS011;838;51.794;12.258;2022-08-19T05:14:43;52.53;;;39.70;;
1679;SDS011;838;51.794;12.258;2022-08-19T05:17:10;52.23;;;40.37;;
1679;SDS011;838;51.794;12.258;2022-08-19T05:19:36;55.53;;;37.37;;
1679;SDS011;838;51.794;12.258;2022-08-19T05:22:21;57.27;;;41.83;;
1679;SDS011;838;51.794;12.258;2022-08-19T05:25:07;53.47;;;40.93;;
1679;SDS011;838;51.794;12.258;2022-08-19T05:27:35;51.97;;;39.30;;
1679;SDS011;838;51.794;12.258;2022-08-19T05:30:01;50.73;;;40.57;;
1679;SDS011;838;51.794;12.258;2022-08-19T05:32:27;59.27;;;42.93;;
1679;SDS011;838;51.794;12.258;2022-08-19T05:34:53;54.83;;;39.30;;
1679;SDS011;838;51.794;12.258;2022-08-19T05:37:22;58.07;;;41.27;;
1679;SDS011;838;51.794;12.258;2022-08-19T05:39:48;52.63;;;38.43;;
1679;SDS011;838;51.794;12.258;2022-08-19T05:42:14;52.97;;;39.57;;
1679;SDS011;838;51.794;12.258;2022-08-19T05:44:41;50.30;;;39.97;;
1679;SDS011;838;51.794;12.258;2022-08-19T05:47:12;52.17;;;39.57;;
1679;SDS011;838;51.794;12.258;2022-08-19T05:49:39;50.43;;;40.30;;
1679;SDS011;838;51.794;12.258;2022-08-19T05:52:07;52.27;;;40.90;;
1679;SDS011;838;51.794;12.258;2022-08-19T05:54:36;52.30;;;41.20;;
1679;SDS011;838;51.794;12.258;2022-08-19T05:57:05;50.27;;;39.70;;
1679;SDS011;838;51.794;12.258;2022-08-19T05:59:31;51.17;;;38.50;;
1679;SDS011;838;51.794;12.258;2022-08-19T06:02:00;43.47;;;38.00;;
1679;SDS011;838;51.794;12.258;2022-08-19T06:04:28;44.57;;;37.57;;
1679;SDS011;838;51.794;12.258;2022-08-19T06:06:54;45.43;;;36.43;;
1679;SDS011;838;51.794;12.258;2022-08-19T06:09:21;42.27;;;34.93;;
1679;SDS011;838;51.794;12.258;2022-08-19T06:11:56;43.10;;;37.30;;
1679;SDS011;838;51.794;12.258;2022-08-19T06:14:25;50.37;;;38.07;;
1679;SDS011;838;51.794;12.258;2022-08-19T06:16:53;41.40;;;34.93;;
1679;SDS011;838;51.794;12.258;2022-08-19T06:19:20;42.57;;;36.57;;
1679;SDS011;838;51.794;12.258;2022-08-19T06:21:48;44.40;;;36.50;;
1679;SDS011;838;51.794;12.258;2022-08-19T06:24:16;41.67;;;35.33;;
1679;SDS011;838;51.794;12.258;2022-08-19T06:26:45;48.53;;;36.47;;
1679;SDS011;838;51.794;12.258;2022-08-19T06:29:13;41.87;;;36.17;;
1679;SDS011;838;51.794;12.258;2022-08-19T06:31:44;45.27;;;36.00;;
1679;SDS011;838;51.794;12.258;2022-08-19T06:34:14;46.83;;;39.00;;
1679;SDS011;838;51.794;12.258;2022-08-19T06:36:41;47.13;;;35.80;;
1679;SDS011;838;51.794;12.258;2022-08-19T06:39:11;41.20;;;35.60;;
1679;SDS011;838;51.794;12.258;2022-08-19T06:41:40;45.23;;;36.27;;
1679;SDS011;838;51.794;12.258;2022-08-19T06:44:08;47.50;;;35.60;;
1679;SDS011;838;51.794;12.258;2022-08-19T06:46:34;51.33;;;36.73;;
1679;SDS011;838;51.794;12.258;2022-08-19T06:49:01;49.57;;;37.03;;
1679;SDS011;838;51.794;12.258;2022-08-19T06:51:27;43.33;;;35.27;;
1679;SDS011;838;51.794;12.258;2022-08-19T06:53:55;43.33;;;34.30;;
1679;SDS011;838;51.794;12.258;2022-08-19T06:56:22;48.13;;;36.17;;
1679;SDS011;838;51.794;12.258;2022-08-19T06:58:55;44.67;;;35.90;;
1679;SDS011;838;51.794;12.258;2022-08-19T07:01:20;46.60;;;36.60;;
1679;SDS011;838;51.794;12.258;2022-08-19T07:03:46;43.90;;;35.80;;
1679;SDS011;838;51.794;12.258;2022-08-19T07:06:13;44.40;;;34.20;;
1679;SDS011;838;51.794;12.258;2022-08-19T07:08:42;46.07;;;36.60;;
1679;SDS011;838;51.794;12.258;2022-08-19T07:11:11;46.43;;;36.37;;
1679;SDS011;838;51.794;12.258;2022-08-19T07:13:39;42.47;;;33.60;;
1679;SDS011;838;51.794;12.258;2022-08-19T07:16:12;43.50;;;33.77;;
1679;SDS011;838;51.794;12.258;2022-08-19T07:18:39;40.00;;;34.17;;
1679;SDS011;838;51.794;12.258;2022-08-19T07:21:16;44.70;;;36.00;;
1679;SDS011;838;51.794;12.258;2022-08-19T07:23:44;40.00;;;35.63;;
1679;SDS011;838;51.794;12.258;2022-08-19T07:28:39;45.00;;;33.33;;
1679;SDS011;838;51.794;12.258;2022-08-19T07:31:06;41.70;;;35.00;;
1679;SDS011;838;51.794;12.258;2022-08-19T07:33:32;40.20;;;33.43;;
1679;SDS011;838;51.794;12.258;2022-08-19T07:36:00;38.50;;;33.50;;
1679;SDS011;838;51.794;12.258;2022-08-19T07:38:26;41.90;;;32.77;;
1679;SDS011;838;51.794;12.258;2022-08-19T07:40:52;38.83;;;31.20;;
1679;SDS011;838;51.794;12.258;2022-08-19T07:43:18;41.33;;;33.30;;
1679;SDS011;838;51.794;12.258;2022-08-19T07:45:45;35.00;;;29.40;;
1679;SDS011;838;51.794;12.258;2022-08-19T07:48:12;40.83;;;31.80;;
1679;SDS011;838;51.794;12.258;2022-08-19T07:50:37;33.10;;;29.53;;
1679;SDS011;838;51.794;12.258;2022-08-19T07:53:03;33.87;;;28.63;;
1679;SDS011;838;51.794;12.258;2022-08-19T07:55:29;31.30;;;27.33;;
1679;SDS011;838;51.794;12.258;2022-08-19T07:57:55;31.27;;;28.00;;
1679;SDS011;838;51.794;12.258;2022-08-19T08:00:21;35.93;;;28.77;;
1679;SDS011;838;51.794;12.258;2022-08-19T08:02:47;32.47;;;28.80;;
1679;SDS011;838;51.794;12.258;2022-08-19T08:05:12;37.47;;;26.90;;
1679;SDS011;838;51.794;12.258;2022-08-19T08:07:57;32.57;;;29.07;;
1679;SDS011;838;51.794;12.258;2022-08-19T08:10:41;31.30;;;27.90;;
1679;SDS011;838;51.794;12.258;2022-08-19T08:13:07;32.50;;;27.67;;
1679;SDS011;838;51.794;12.258;2022-08-19T08:15:33;31.77;;;28.30;;
1679;SDS011;838;51.794;12.258;2022-08-19T08:17:59;33.50;;;25.43;;
1679;SDS011;838;51.794;12.258;2022-08-19T08:20:25;31.03;;;27.53;;
1679;SDS011;838;51.794;12.258;2022-08-19T08:22:51;30.17;;;27.07;;
1679;SDS011;838;51.794;12.258;2022-08-19T08:25:35;29.57;;;24.70;;
1679;SDS011;838;51.794;12.258;2022-08-19T08:28:03;30.50;;;26.27;;
1679;SDS011;838;51.794;12.258;2022-08-19T08:30:29;31.40;;;28.00;;
1679;SDS011;838;51.794;12.258;2022-08-19T08:32:57;29.23;;;26.07;;
1679;SDS011;838;51.794;12.258;2022-08-19T08:35:23;28.63;;;25.67;;
1679;SDS011;838;51.794;12.258;2022-08-19T08:37:50;33.07;;;27.77;;
1679;SDS011;838;51.794;12.258;2022-08-19T08:42:51;32.50;;;29.10;;
1679;SDS011;838;51.794;12.258;2022-08-19T08:45:25;28.30;;;23.93;;
1679;SDS011;838;51.794;12.258;2022-08-19T08:47:53;29.87;;;26.60;;
1679;SDS011;838;51.794;12.258;2022-08-19T08:50:39;29.33;;;26.00;;
1679;SDS011;838;51.794;12.258;2022-08-19T08:53:08;32.00;;;28.70;;
1679;SDS011;838;51.794;12.258;2022-08-19T08:55:35;31.80;;;26.57;;
1679;SDS011;838;51.794;12.258;2022-08-19T08:58:05;33.07;;;28.53;;
1679;SDS011;838;51.794;12.258;2022-08-19T09:00:43;33.83;;;29.10;;
1679;SDS011;838;51.794;12.258;2022-08-19T09:03:20;31.27;;;28.10;;
1679;SDS011;838;51.794;12.258;2022-08-19T09:06:07;32.00;;;27.40;;
1679;SDS011;838;51.794;12.258;2022-08-19T09:11:50;31.13;;;26.33;;
1679;SDS011;838;51.794;12.258;2022-08-19T09:17:07;35.77;;;29.63;;
1679;SDS011;838;51.794;12.258;2022-08-19T09:19:46;29.90;;;26.10;;
1679;SDS011;838;51.794;12.258;2022-08-19T09:22:15;29.40;;;25.63;;
1679;SDS011;838;51.794;12.258;2022-08-19T09:24:41;32.27;;;28.87;;
1679;SDS011;838;51.794;12.258;2022-08-19T09:27:07;30.87;;;27.60;;
1679;SDS011;838;51.794;12.258;2022-08-19T09:29:33;32.13;;;28.73;;
1679;SDS011;838;51.794;12.258;2022-08-19T09:31:59;32.27;;;27.13;;
1679;SDS011;838;51.794;12.258;2022-08-19T09:34:25;32.20;;;28.90;;
1679;SDS011;838;51.794;12.258;2022-08-19T09:36:51;38.43;;;29.90;;
1679;SDS011;838;51.794;12.258;2022-08-19T09:39:18;33.40;;;28.70;;
1679;SDS011;838;51.794;12.258;2022-08-19T09:41:44;31.00;;;26.80;;
1679;SDS011;838;51.794;12.258;2022-08-19T09:44:09;30.87;;;27.63;;
1679;SDS011;838;51.794;12.258;2022-08-19T09:46:37;30.77;;;27.10;;
1679;SDS011;838;51.794;12.258;2022-08-19T09:49:02;29.73;;;25.87;;
1679;SDS011;838;51.794;12.258;2022-08-19T09:51:31;32.00;;;27.67;;
1679;SDS011;838;51.794;12.258;2022-08-19T09:53:58;29.40;;;25.50;;
1679;SDS011;838;51.794;12.258;2022-08-19T09:56:26;31.00;;;27.70;;
1679;SDS011;838;51.794;12.258;2022-08-19T09:58:53;28.57;;;24.90;;
1679;SDS011;838;51.794;12.258;2022-08-19T10:01:20;28.10;;;25.10;;
1679;SDS011;838;51.794;12.258;2022-08-19T10:03:50;31.90;;;23.80;;
1679;SDS011;838;51.794;12.258;2022-08-19T10:06:18;27.93;;;25.03;;
1679;SDS011;838;51.794;12.258;2022-08-19T10:08:45;28.80;;;23.53;;
1679;SDS011;838;51.794;12.258;2022-08-19T10:11:11;25.80;;;23.30;;
1679;SDS011;838;51.794;12.258;2022-08-19T10:13:39;24.17;;;21.77;;
1679;SDS011;838;51.794;12.258;2022-08-19T10:16:08;26.73;;;23.73;;
1679;SDS011;838;51.794;12.258;2022-08-19T10:18:36;25.73;;;23.17;;
1679;SDS011;838;51.794;12.258;2022-08-19T10:21:08;25.77;;;23.13;;
1679;SDS011;838;51.794;12.258;2022-08-19T10:23:39;26.83;;;22.40;;
1679;SDS011;838;51.794;12.258;2022-08-19T10:26:10;24.03;;;21.57;;
1679;SDS011;838;51.794;12.258;2022-08-19T10:28:42;24.80;;;21.63;;
1679;SDS011;838;51.794;12.258;2022-08-19T10:31:09;23.90;;;21.40;;
1679;SDS011;838;51.794;12.258;2022-08-19T10:33:44;25.03;;;22.33;;
1679;SDS011;838;51.794;12.258;2022-08-19T10:36:14;24.00;;;21.33;;
1679;SDS011;838;51.794;12.258;2022-08-19T10:38:42;24.10;;;21.57;;
1679;SDS011;838;51.794;12.258;2022-08-19T10:41:15;26.27;;;21.27;;
1679;SDS011;838;51.794;12.258;2022-08-19T10:43:42;23.77;;;21.40;;
1679;SDS011;838;51.794;12.258;2022-08-19T10:46:10;23.57;;;21.07;;
1679;SDS011;838;51.794;12.258;2022-08-19T10:48:38;22.53;;;19.47;;
1679;SDS011;838;51.794;12.258;2022-08-19T10:51:04;23.00;;;19.57;;
1679;SDS011;838;51.794;12.258;2022-08-19T10:53:48;21.57;;;19.27;;
1679;SDS011;838;51.794;12.258;2022-08-19T10:56:15;24.73;;;21.03;;
1679;SDS011;838;51.794;12.258;2022-08-19T10:58:59;20.70;;;18.57;;
1679;SDS011;838;51.794;12.258;2022-08-19T11:01:28;21.17;;;18.37;;
1679;SDS011;838;51.794;12.258;2022-08-19T11:03:55;21.40;;;19.13;;
1679;SDS011;838;51.794;12.258;2022-08-19T11:06:25;20.47;;;18.37;;
1679;SDS011;838;51.794;12.258;2022-08-19T11:08:54;20.00;;;18.00;;
1679;SDS011;838;51.794;12.258;2022-08-19T11:11:20;20.63;;;17.37;;
1679;SDS011;838;51.794;12.258;2022-08-19T11:13:47;18.17;;;16.37;;
1679;SDS011;838;51.794;12.258;2022-08-19T11:16:22;17.57;;;15.73;;
1679;SDS011;838;51.794;12.258;2022-08-19T11:18:50;22.40;;;18.00;;
1679;SDS011;838;51.794;12.258;2022-08-19T11:23:51;17.27;;;15.57;;
1679;SDS011;838;51.794;12.258;2022-08-19T11:26:20;19.20;;;17.13;;
1679;SDS011;838;51.794;12.258;2022-08-19T11:28:48;18.30;;;16.50;;
1679;SDS011;838;51.794;12.258;2022-08-19T11:31:22;16.80;;;15.00;;
1679;SDS011;838;51.794;12.258;2022-08-19T11:33:51;18.17;;;15.70;;
1679;SDS011;838;51.794;12.258;2022-08-19T11:36:18;16.47;;;14.87;;
1679;SDS011;838;51.794;12.258;2022-08-19T11:38:45;17.03;;;15.30;;
1679;SDS011;838;51.794;12.258;2022-08-19T11:41:13;16.13;;;14.50;;
1679;SDS011;838;51.794;12.258;2022-08-19T11:43:40;18.07;;;15.97;;
1679;SDS011;838;51.794;12.258;2022-08-19T11:46:08;16.30;;;14.60;;
1679;SDS011;838;51.794;12.258;2022-08-19T11:48:37;16.60;;;15.07;;
1679;SDS011;838;51.794;12.258;2022-08-19T11:51:07;14.47;;;13.10;;
1679;SDS011;838;51.794;12.258;2022-08-19T11:53:36;19.43;;;16.60;;
1679;SDS011;838;51.794;12.258;2022-08-19T11:56:02;16.63;;;13.90;;
1679;SDS011;838;51.794;12.258;2022-08-19T11:58:29;16.93;;;13.10;;
1679;SDS011;838;51.794;12.258;2022-08-19T12:00:58;17.23;;;13.90;;
1679;SDS011;838;51.794;12.258;2022-08-19T12:03:23;16.17;;;13.67;;
1679;SDS011;838;51.794;12.258;2022-08-19T12:05:50;16.70;;;15.10;;
1679;SDS011;838;51.794;12.258;2022-08-19T12:08:16;15.87;;;14.30;;
1679;SDS011;838;51.794;12.258;2022-08-19T12:10:43;15.00;;;13.50;;
1679;SDS011;838;51.794;12.258;2022-08-19T12:13:10;17.13;;;15.07;;
1679;SDS011;838;51.794;12.258;2022-08-19T12:15:43;16.33;;;14.63;;
1679;SDS011;838;51.794;12.258;2022-08-19T12:18:11;18.00;;;16.20;;
1679;SDS011;838;51.794;12.258;2022-08-19T12:20:39;16.10;;;14.40;;
1679;SDS011;838;51.794;12.258;2022-08-19T12:23:06;18.23;;;16.40;;
1679;SDS011;838;51.794;12.258;2022-08-19T12:25:37;17.80;;;15.93;;
1679;SDS011;838;51.794;12.258;2022-08-19T12:28:14;18.80;;;16.97;;
1679;SDS011;838;51.794;12.258;2022-08-19T12:30:44;18.83;;;17.00;;
1679;SDS011;838;51.794;12.258;2022-08-19T12:33:10;17.73;;;15.83;;
1679;SDS011;838;51.794;12.258;2022-08-19T12:35:42;16.60;;;14.80;;
1679;SDS011;838;51.794;12.258;2022-08-19T12:38:11;15.77;;;14.00;;
1679;SDS011;838;51.794;12.258;2022-08-19T12:40:50;19.23;;;16.57;;
1679;SDS011;838;51.794;12.258;2022-08-19T12:43:22;16.63;;;14.57;;
1679;SDS011;838;51.794;12.258;2022-08-19T12:45:48;16.87;;;15.07;;
1679;SDS011;838;51.794;12.258;2022-08-19T12:48:13;15.40;;;13.87;;
1679;SDS011;838;51.794;12.258;2022-08-19T12:50:43;16.63;;;14.90;;
1679;SDS011;838;51.794;12.258;2022-08-19T12:53:11;16.07;;;14.43;;
1679;SDS011;838;51.794;12.258;2022-08-19T12:55:40;15.93;;;14.30;;
1679;SDS011;838;51.794;12.258;2022-08-19T12:58:10;16.33;;;14.63;;
1679;SDS011;838;51.794;12.258;2022-08-19T13:00:37;17.07;;;15.23;;
1679;SDS011;838;51.794;12.258;2022-08-19T13:03:03;16.93;;;15.13;;
1679;SDS011;838;51.794;12.258;2022-08-19T13:05:32;16.67;;;14.90;;
1679;SDS011;838;51.794;12.258;2022-08-19T13:07:59;16.43;;;13.70;;
1679;SDS011;838;51.794;12.258;2022-08-19T13:10:27;15.80;;;13.57;;
1679;SDS011;838;51.794;12.258;2022-08-19T13:13:00;15.70;;;14.00;;
1679;SDS011;838;51.794;12.258;2022-08-19T13:15:36;16.80;;;14.60;;
1679;SDS011;838;51.794;12.258;2022-08-19T13:18:07;15.07;;;13.57;;
1679;SDS011;838;51.794;12.258;2022-08-19T13:20:42;15.40;;;13.80;;
1679;SDS011;838;51.794;12.258;2022-08-19T13:23:08;16.73;;;13.70;;
1679;SDS011;838;51.794;12.258;2022-08-19T13:25:43;15.03;;;13.30;;
1679;SDS011;838;51.794;12.258;2022-08-19T13:28:09;18.77;;;14.60;;
1679;SDS011;838;51.794;12.258;2022-08-19T13:30:35;16.83;;;13.57;;
1679;SDS011;838;51.794;12.258;2022-08-19T13:33:19;15.13;;;13.43;;
1679;SDS011;838;51.794;12.258;2022-08-19T13:35:58;15.03;;;13.40;;
1679;SDS011;838;51.794;12.258;2022-08-19T13:38:26;17.07;;;12.60;;
1679;SDS011;838;51.794;12.258;2022-08-19T13:40:54;15.90;;;12.63;;
1679;SDS011;838;51.794;12.258;2022-08-19T13:43:22;14.20;;;12.70;;
1679;SDS011;838;51.794;12.258;2022-08-19T13:45:51;16.30;;;13.20;;
1679;SDS011;838;51.794;12.258;2022-08-19T13:48:20;15.33;;;13.73;;
1679;SDS011;838;51.794;12.258;2022-08-19T13:50:49;13.93;;;11.63;;
1679;SDS011;838;51.794;12.258;2022-08-19T13:53:19;15.17;;;12.30;;
1679;SDS011;838;51.794;12.258;2022-08-19T13:55:48;14.53;;;11.67;;
1679;SDS011;838;51.794;12.258;2022-08-19T13:58:16;14.43;;;12.90;;
1679;SDS011;838;51.794;12.258;2022-08-19T14:00:43;14.70;;;13.20;;
1679;SDS011;838;51.794;12.258;2022-08-19T14:03:11;16.33;;;13.03;;
1679;SDS011;838;51.794;12.258;2022-08-19T14:05:37;14.27;;;12.80;;
1679;SDS011;838;51.794;12.258;2022-08-19T14:08:06;13.77;;;12.07;;
1679;SDS011;838;51.794;12.258;2022-08-19T14:10:32;13.57;;;10.90;;
1679;SDS011;838;51.794;12.258;2022-08-19T14:13:00;12.83;;;11.40;;
1679;SDS011;838;51.794;12.258;2022-08-19T14:15:28;14.80;;;13.17;;
1679;SDS011;838;51.794;12.258;2022-08-19T14:17:54;16.07;;;14.23;;
1679;SDS011;838;51.794;12.258;2022-08-19T14:20:20;16.73;;;13.27;;
1679;SDS011;838;51.794;12.258;2022-08-19T14:22:47;16.60;;;13.37;;
1679;SDS011;838;51.794;12.258;2022-08-19T14:25:24;15.50;;;13.30;;
1679;SDS011;838;51.794;12.258;2022-08-19T14:27:52;14.30;;;12.80;;
1679;SDS011;838;51.794;12.258;2022-08-19T14:30:20;15.47;;;12.17;;
1679;SDS011;838;51.794;12.258;2022-08-19T14:32:48;12.80;;;11.50;;
1679;SDS011;838;51.794;12.258;2022-08-19T14:35:14;12.53;;;10.50;;
1679;SDS011;838;51.794;12.258;2022-08-19T14:37:45;12.33;;;10.13;;
1679;SDS011;838;51.794;12.258;2022-08-19T14:40:15;11.50;;;10.30;;
1679;SDS011;838;51.794;12.258;2022-08-19T14:42:43;10.57;;;9.47;;
1679;SDS011;838;51.794;12.258;2022-08-19T14:45:14;10.53;;;8.83;;
1679;SDS011;838;51.794;12.258;2022-08-19T14:47:39;12.73;;;8.67;;
1679;SDS011;838;51.794;12.258;2022-08-19T14:50:06;10.87;;;9.77;;
1679;SDS011;838;51.794;12.258;2022-08-19T14:52:34;14.33;;;9.20;;
1679;SDS011;838;51.794;12.258;2022-08-19T14:55:05;10.43;;;9.20;;
1679;SDS011;838;51.794;12.258;2022-08-19T14:57:32;10.23;;;9.10;;
1679;SDS011;838;51.794;12.258;2022-08-19T15:00:03;11.57;;;9.00;;
1679;SDS011;838;51.794;12.258;2022-08-19T15:02:30;12.03;;;9.43;;
1679;SDS011;838;51.794;12.258;2022-08-19T15:04:56;10.67;;;8.83;;
1679;SDS011;838;51.794;12.258;2022-08-19T15:07:25;10.90;;;9.50;;
1679;SDS011;838;51.794;12.258;2022-08-19T15:09:51;11.50;;;10.30;;